Usk, WA

11:41 AM PDT on September 01, 2014 (GMT -0700)
Deer Park | Change Station
CLOSE
Current Station
Airport
Location: Deer Park,
Elevation: 2205 ft
Nearby Weather Stations

Elev 2205 ft 47.97 °N, 117.42 °W | Updated 48 minutes ago

Clear
Clear
63 °F
Feels Like 63 °F
N
7
Wind Variable Wind from SE

Today
High -- | Low -- °F
--% Chance of Precip.
Yesterday
High -- | Low -- °F
Precip. -- in
6:06 AM 7:30 PM
Waxing Crescent, 43% visible
Pressure 30.05 in
Visibility 10.0 miles
Clouds Clear
Dew Point 40 °F
Humidity 43%
Rainfall 0.00 in
Snow Depth Not available.
UV 6 out of 12
Pollen 6.50 out of 12
PM2.5 Good
Flu Activity Not available.
METAR KDEW 011753Z AUTO 14006KT 10SM CLR 17/04 A3005 RMK AO2 SLP175 T01720044 10172 20028 50001

More Conditions Fewer Conditions

Pressure 30.05 in
Visibility 10.0 miles
Clouds Clear
Dew Point 40 °F
Humidity 43%
Rainfall 0.00 in
Snow Depth Not available.
UV 6 out of 12
Pollen 6.50 out of 12
PM2.5 Good
Flu Activity Not available.
METAR KDEW 011753Z AUTO 14006KT 10SM CLR 17/04 A3005 RMK AO2 SLP175 T01720044 10172 20028 50001

More Conditions Fewer Conditions

10-Day Weather Forecast

Almanac

Astronomy

Sep. 01, 2014 Rise Set
Actual Time 6:06 AM PDT 7:30 PM PDT
Civil Twilight 5:34 AM PDT 8:02 PM PDT
Nautical Twilight 4:55 AM PDT 8:41 PM PDT
Astronomical Twilight 4:12 AM PDT 9:23 PM PDT
Moon 1:29 PM PDT 11:02 PM PDT
Length of Visible Light 14h 28m
Length of Day
13h 23m
Tomorrow will be 3m 24s shorter.
Waxing Crescent, 43% of the Moon is Illuminated
Today
Waxing Crescent
Sep 2
First Quarter
Sep 8
Full
Sep 15
Last Quarter
Sep 24
New

Today's Extremes

State Highs State Lows

Community

WunderPhotos

Upload Photos

1,749,359 photos uploaded!

Nearby

Air Quality

  Air Quality AQ Index Pollutant
Yesterday Good
OZONE
Yesterday Good
PM10
Current Good
PM2.5
Monday Good
PM10
Monday Good
OZONE

Snow Depth

Station Depth Elevation
Bunchgrass Meadow 0 in 5000 ft
Quartz Peak 1 in 4700 ft
Sentinel Butte 0 in 4920 ft
Moses Mountain 1 in 5300 ft
Spruce Springs 0 in 5700 ft

Earthquake Activity

City Distance Mag. Time & Date
No recent earthquake activity has been reported nearby.
Minimum magnitude displayed is 2.5.

Coastal Water Temperatures

Place Temperature
No Stations Reporting

Nearby Weather Stations